sensor_id;sensor_type;location;lat;lon;timestamp;P1;durP1;ratioP1;P2;durP2;ratioP2
15814;SDS011;8008;50.024;8.172;2023-12-14T04:00:20;5.07;;;2.87;;
15814;SDS011;8008;50.024;8.172;2023-12-14T04:02:48;4.70;;;3.13;;
15814;SDS011;8008;50.024;8.172;2023-12-14T04:05:16;4.57;;;3.03;;
15814;SDS011;8008;50.024;8.172;2023-12-14T04:07:44;4.63;;;3.20;;
15814;SDS011;8008;50.024;8.172;2023-12-14T04:10:12;3.97;;;2.97;;
15814;SDS011;8008;50.024;8.172;2023-12-14T04:12:41;9.43;;;3.30;;
15814;SDS011;8008;50.024;8.172;2023-12-14T04:15:09;6.33;;;3.17;;
15814;SDS011;8008;50.024;8.172;2023-12-14T04:17:39;5.27;;;3.00;;
15814;SDS011;8008;50.024;8.172;2023-12-14T04:20:07;6.67;;;3.60;;
15814;SDS011;8008;50.024;8.172;2023-12-14T04:22:36;3.63;;;2.90;;
15814;SDS011;8008;50.024;8.172;2023-12-14T04:25:05;7.10;;;4.00;;
15814;SDS011;8008;50.024;8.172;2023-12-14T04:27:34;11.10;;;7.00;;
15814;SDS011;8008;50.024;8.172;2023-12-14T04:30:02;11.10;;;7.23;;
15814;SDS011;8008;50.024;8.172;2023-12-14T04:32:32;7.10;;;3.77;;
15814;SDS011;8008;50.024;8.172;2023-12-14T04:35:02;6.77;;;4.33;;
15814;SDS011;8008;50.024;8.172;2023-12-14T04:37:30;12.73;;;6.60;;
15814;SDS011;8008;50.024;8.172;2023-12-14T04:39:58;8.77;;;5.40;;
15814;SDS011;8008;50.024;8.172;2023-12-14T04:42:26;14.30;;;9.77;;
15814;SDS011;8008;50.024;8.172;2023-12-14T04:44:54;6.70;;;3.43;;
15814;SDS011;8008;50.024;8.172;2023-12-14T04:47:22;11.63;;;8.27;;
15814;SDS011;8008;50.024;8.172;2023-12-14T04:49:50;12.37;;;6.50;;
15814;SDS011;8008;50.024;8.172;2023-12-14T04:52:19;7.40;;;5.60;;
15814;SDS011;8008;50.024;8.172;2023-12-14T04:54:47;9.70;;;6.47;;
15814;SDS011;8008;50.024;8.172;2023-12-14T04:57:15;9.93;;;6.97;;
15814;SDS011;8008;50.024;8.172;2023-12-14T04:59:44;6.80;;;4.37;;
15814;SDS011;8008;50.024;8.172;2023-12-14T05:02:12;5.00;;;3.37;;
15814;SDS011;8008;50.024;8.172;2023-12-14T05:04:40;6.07;;;4.37;;
15814;SDS011;8008;50.024;8.172;2023-12-14T05:07:08;7.20;;;4.20;;
15814;SDS011;8008;50.024;8.172;2023-12-14T05:09:37;5.43;;;4.00;;
15814;SDS011;8008;50.024;8.172;2023-12-14T05:12:05;5.47;;;3.60;;
15814;SDS011;8008;50.024;8.172;2023-12-14T05:14:33;6.53;;;4.10;;
15814;SDS011;8008;50.024;8.172;2023-12-14T05:17:01;7.23;;;4.63;;
15814;SDS011;8008;50.024;8.172;2023-12-14T05:19:29;7.80;;;5.28;;
15814;SDS011;8008;50.024;8.172;2023-12-14T05:22:02;9.57;;;4.27;;
15814;SDS011;8008;50.024;8.172;2023-12-14T05:24:31;9.37;;;4.93;;
15814;SDS011;8008;50.024;8.172;2023-12-14T05:27:00;9.50;;;4.50;;
15814;SDS011;8008;50.024;8.172;2023-12-14T05:29:28;8.47;;;4.77;;
15814;SDS011;8008;50.024;8.172;2023-12-14T05:31:57;8.83;;;5.17;;
15814;SDS011;8008;50.024;8.172;2023-12-14T05:34:25;10.00;;;4.78;;
15814;SDS011;8008;50.024;8.172;2023-12-14T05:36:53;10.57;;;4.97;;
15814;SDS011;8008;50.024;8.172;2023-12-14T05:39:21;7.65;;;4.70;;
15814;SDS011;8008;50.024;8.172;2023-12-14T05:41:49;8.77;;;5.05;;
15814;SDS011;8008;50.024;8.172;2023-12-14T05:44:18;11.18;;;6.90;;
15814;SDS011;8008;50.024;8.172;2023-12-14T05:46:46;12.05;;;6.38;;
15814;SDS011;8008;50.024;8.172;2023-12-14T05:49:14;10.30;;;6.03;;
15814;SDS011;8008;50.024;8.172;2023-12-14T05:51:42;12.05;;;6.78;;
15814;SDS011;8008;50.024;8.172;2023-12-14T05:54:10;11.63;;;6.28;;
15814;SDS011;8008;50.024;8.172;2023-12-14T05:56:38;12.80;;;6.63;;
15814;SDS011;8008;50.024;8.172;2023-12-14T05:59:08;10.23;;;6.70;;
15814;SDS011;8008;50.024;8.172;2023-12-14T06:01:37;13.27;;;7.10;;
15814;SDS011;8008;50.024;8.172;2023-12-14T06:04:05;12.00;;;6.87;;
15814;SDS011;8008;50.024;8.172;2023-12-14T06:06:33;14.15;;;7.65;;
15814;SDS011;8008;50.024;8.172;2023-12-14T06:09:01;12.13;;;6.35;;
15814;SDS011;8008;50.024;8.172;2023-12-14T06:11:29;12.60;;;5.60;;
15814;SDS011;8008;50.024;8.172;2023-12-14T06:13:57;12.13;;;5.87;;
15814;SDS011;8008;50.024;8.172;2023-12-14T06:16:26;9.80;;;5.80;;
15814;SDS011;8008;50.024;8.172;2023-12-14T06:18:55;8.45;;;4.70;;
15814;SDS011;8008;50.024;8.172;2023-12-14T06:21:23;6.30;;;4.47;;
15814;SDS011;8008;50.024;8.172;2023-12-14T06:23:52;8.65;;;5.88;;
15814;SDS011;8008;50.024;8.172;2023-12-14T06:26:20;11.80;;;5.87;;
15814;SDS011;8008;50.024;8.172;2023-12-14T06:28:48;12.30;;;6.27;;
15814;SDS011;8008;50.024;8.172;2023-12-14T06:31:16;13.13;;;6.83;;
15814;SDS011;8008;50.024;8.172;2023-12-14T06:33:46;11.48;;;6.47;;
15814;SDS011;8008;50.024;8.172;2023-12-14T06:36:16;9.73;;;6.43;;
15814;SDS011;8008;50.024;8.172;2023-12-14T06:38:45;12.73;;;7.28;;
15814;SDS011;8008;50.024;8.172;2023-12-14T06:41:19;14.52;;;8.20;;
15814;SDS011;8008;50.024;8.172;2023-12-14T06:43:47;13.67;;;7.50;;
15814;SDS011;8008;50.024;8.172;2023-12-14T06:46:15;12.52;;;7.30;;
15814;SDS011;8008;50.024;8.172;2023-12-14T06:48:43;13.10;;;7.25;;
15814;SDS011;8008;50.024;8.172;2023-12-14T06:51:12;12.10;;;7.13;;
15814;SDS011;8008;50.024;8.172;2023-12-14T06:53:41;12.82;;;7.22;;
15814;SDS011;8008;50.024;8.172;2023-12-14T06:56:10;14.05;;;8.10;;
15814;SDS011;8008;50.024;8.172;2023-12-14T06:58:39;16.30;;;8.23;;
15814;SDS011;8008;50.024;8.172;2023-12-14T07:01:07;16.40;;;8.20;;
15814;SDS011;8008;50.024;8.172;2023-12-14T07:03:39;12.48;;;7.57;;
15814;SDS011;8008;50.024;8.172;2023-12-14T07:06:07;15.10;;;7.78;;
15814;SDS011;8008;50.024;8.172;2023-12-14T07:08:39;16.38;;;8.45;;
15814;SDS011;8008;50.024;8.172;2023-12-14T07:11:08;16.30;;;8.70;;
15814;SDS011;8008;50.024;8.172;2023-12-14T07:13:37;15.38;;;8.65;;
15814;SDS011;8008;50.024;8.172;2023-12-14T07:16:06;16.77;;;8.43;;
15814;SDS011;8008;50.024;8.172;2023-12-14T07:18:35;13.45;;;7.88;;
15814;SDS011;8008;50.024;8.172;2023-12-14T07:21:04;13.93;;;8.07;;
15814;SDS011;8008;50.024;8.172;2023-12-14T07:23:32;13.18;;;8.00;;
15814;SDS011;8008;50.024;8.172;2023-12-14T07:26:01;14.98;;;8.63;;
15814;SDS011;8008;50.024;8.172;2023-12-14T07:28:34;14.55;;;8.13;;
15814;SDS011;8008;50.024;8.172;2023-12-14T07:31:02;16.35;;;8.60;;
15814;SDS011;8008;50.024;8.172;2023-12-14T07:33:31;13.25;;;7.72;;
15814;SDS011;8008;50.024;8.172;2023-12-14T07:35:59;13.95;;;8.48;;
15814;SDS011;8008;50.024;8.172;2023-12-14T07:38:27;16.33;;;8.68;;
15814;SDS011;8008;50.024;8.172;2023-12-14T07:40:55;15.18;;;8.60;;
15814;SDS011;8008;50.024;8.172;2023-12-14T07:43:23;15.27;;;8.18;;
15814;SDS011;8008;50.024;8.172;2023-12-14T07:45:53;13.70;;;7.57;;
15814;SDS011;8008;50.024;8.172;2023-12-14T07:48:21;14.07;;;7.50;;
15814;SDS011;8008;50.024;8.172;2023-12-14T07:50:49;11.93;;;7.22;;
15814;SDS011;8008;50.024;8.172;2023-12-14T07:53:18;13.48;;;7.65;;
15814;SDS011;8008;50.024;8.172;2023-12-14T07:55:46;13.25;;;6.95;;
15814;SDS011;8008;50.024;8.172;2023-12-14T07:58:14;14.55;;;7.88;;
15814;SDS011;8008;50.024;8.172;2023-12-14T08:00:42;14.00;;;7.95;;
15814;SDS011;8008;50.024;8.172;2023-12-14T08:03:11;13.85;;;7.70;;
15814;SDS011;8008;50.024;8.172;2023-12-14T08:05:39;13.15;;;6.70;;
15814;SDS011;8008;50.024;8.172;2023-12-14T08:08:07;13.75;;;7.60;;
15814;SDS011;8008;50.024;8.172;2023-12-14T08:10:35;15.82;;;8.10;;
15814;SDS011;8008;50.024;8.172;2023-12-14T08:13:03;12.93;;;7.22;;
15814;SDS011;8008;50.024;8.172;2023-12-14T08:15:31;12.18;;;7.18;;
15814;SDS011;8008;50.024;8.172;2023-12-14T08:17:59;13.60;;;7.13;;
15814;SDS011;8008;50.024;8.172;2023-12-14T08:20:29;13.82;;;7.20;;
15814;SDS011;8008;50.024;8.172;2023-12-14T08:22:57;10.70;;;6.95;;
15814;SDS011;8008;50.024;8.172;2023-12-14T08:25:25;13.23;;;7.53;;
15814;SDS011;8008;50.024;8.172;2023-12-14T08:27:53;12.18;;;7.40;;
15814;SDS011;8008;50.024;8.172;2023-12-14T08:30:21;14.13;;;7.65;;
15814;SDS011;8008;50.024;8.172;2023-12-14T08:32:50;13.23;;;8.15;;
15814;SDS011;8008;50.024;8.172;2023-12-14T08:35:18;13.30;;;8.00;;
15814;SDS011;8008;50.024;8.172;2023-12-14T08:37:47;14.13;;;7.38;;
15814;SDS011;8008;50.024;8.172;2023-12-14T08:40:15;18.35;;;9.27;;
15814;SDS011;8008;50.024;8.172;2023-12-14T08:42:43;18.67;;;9.02;;
15814;SDS011;8008;50.024;8.172;2023-12-14T08:45:11;14.68;;;7.85;;
15814;SDS011;8008;50.024;8.172;2023-12-14T08:47:39;13.90;;;7.90;;
15814;SDS011;8008;50.024;8.172;2023-12-14T08:50:07;12.75;;;6.97;;
15814;SDS011;8008;50.024;8.172;2023-12-14T08:52:35;16.13;;;8.82;;
15814;SDS011;8008;50.024;8.172;2023-12-14T08:55:06;11.65;;;5.75;;
15814;SDS011;8008;50.024;8.172;2023-12-14T08:57:35;14.88;;;7.90;;
15814;SDS011;8008;50.024;8.172;2023-12-14T09:00:03;12.38;;;7.10;;
15814;SDS011;8008;50.024;8.172;2023-12-14T09:02:32;38.30;;;17.63;;
15814;SDS011;8008;50.024;8.172;2023-12-14T09:05:01;27.13;;;13.60;;
15814;SDS011;8008;50.024;8.172;2023-12-14T09:07:31;23.48;;;9.25;;
15814;SDS011;8008;50.024;8.172;2023-12-14T09:09:58;19.70;;;8.90;;
15814;SDS011;8008;50.024;8.172;2023-12-14T09:12:28;76.88;;;33.75;;
15814;SDS011;8008;50.024;8.172;2023-12-14T09:14:56;58.40;;;23.90;;
15814;SDS011;8008;50.024;8.172;2023-12-14T09:17:24;76.68;;;30.67;;
15814;SDS011;8008;50.024;8.172;2023-12-14T09:19:52;15.68;;;8.20;;
15814;SDS011;8008;50.024;8.172;2023-12-14T09:22:20;15.57;;;8.55;;
15814;SDS011;8008;50.024;8.172;2023-12-14T09:24:48;7.32;;;4.90;;
15814;SDS011;8008;50.024;8.172;2023-12-14T09:27:16;8.00;;;4.97;;
15814;SDS011;8008;50.024;8.172;2023-12-14T09:29:46;6.65;;;4.50;;
15814;SDS011;8008;50.024;8.172;2023-12-14T09:32:14;8.52;;;4.30;;
15814;SDS011;8008;50.024;8.172;2023-12-14T09:34:43;10.55;;;5.85;;
15814;SDS011;8008;50.024;8.172;2023-12-14T09:37:11;8.60;;;5.18;;
15814;SDS011;8008;50.024;8.172;2023-12-14T09:39:40;5.97;;;4.20;;
15814;SDS011;8008;50.024;8.172;2023-12-14T09:42:08;6.20;;;4.05;;
15814;SDS011;8008;50.024;8.172;2023-12-14T09:44:36;6.13;;;4.50;;
15814;SDS011;8008;50.024;8.172;2023-12-14T09:47:06;7.13;;;4.40;;
15814;SDS011;8008;50.024;8.172;2023-12-14T09:49:34;7.18;;;4.40;;
15814;SDS011;8008;50.024;8.172;2023-12-14T09:52:04;6.18;;;4.22;;
15814;SDS011;8008;50.024;8.172;2023-12-14T09:54:32;8.45;;;5.05;;
15814;SDS011;8008;50.024;8.172;2023-12-14T09:57:00;11.50;;;5.80;;
15814;SDS011;8008;50.024;8.172;2023-12-14T09:59:28;17.25;;;7.85;;
15814;SDS011;8008;50.024;8.172;2023-12-14T10:02:07;11.52;;;6.32;;
15814;SDS011;8008;50.024;8.172;2023-12-14T10:04:37;10.20;;;5.75;;
15814;SDS011;8008;50.024;8.172;2023-12-14T10:07:05;9.40;;;5.68;;
15814;SDS011;8008;50.024;8.172;2023-12-14T10:09:34;6.35;;;4.50;;
15814;SDS011;8008;50.024;8.172;2023-12-14T10:12:05;6.85;;;5.07;;
15814;SDS011;8008;50.024;8.172;2023-12-14T10:14:34;6.60;;;4.57;;
15814;SDS011;8008;50.024;8.172;2023-12-14T10:17:14;5.85;;;4.38;;
15814;SDS011;8008;50.024;8.172;2023-12-14T10:19:44;6.95;;;4.03;;
15814;SDS011;8008;50.024;8.172;2023-12-14T10:22:13;6.93;;;4.68;;
15814;SDS011;8008;50.024;8.172;2023-12-14T10:24:43;6.22;;;4.30;;
15814;SDS011;8008;50.024;8.172;2023-12-14T10:27:12;7.00;;;4.18;;
15814;SDS011;8008;50.024;8.172;2023-12-14T10:29:42;10.05;;;4.97;;
15814;SDS011;8008;50.024;8.172;2023-12-14T10:32:11;7.85;;;5.57;;
15814;SDS011;8008;50.024;8.172;2023-12-14T10:34:42;7.78;;;5.47;;
15814;SDS011;8008;50.024;8.172;2023-12-14T10:37:10;8.88;;;6.28;;
15814;SDS011;8008;50.024;8.172;2023-12-14T10:39:40;10.23;;;6.47;;
15814;SDS011;8008;50.024;8.172;2023-12-14T10:42:10;14.07;;;6.20;;
15814;SDS011;8008;50.024;8.172;2023-12-14T10:44:46;19.13;;;6.28;;
15814;SDS011;8008;50.024;8.172;2023-12-14T10:47:21;9.93;;;5.25;;
15814;SDS011;8008;50.024;8.172;2023-12-14T10:49:51;10.80;;;5.90;;
15814;SDS011;8008;50.024;8.172;2023-12-14T10:52:19;12.20;;;5.78;;
15814;SDS011;8008;50.024;8.172;2023-12-14T10:54:51;8.70;;;5.70;;
15814;SDS011;8008;50.024;8.172;2023-12-14T10:57:23;9.80;;;5.93;;
15814;SDS011;8008;50.024;8.172;2023-12-14T10:59:55;8.45;;;5.75;;
15814;SDS011;8008;50.024;8.172;2023-12-14T11:02:26;8.05;;;5.47;;
15814;SDS011;8008;50.024;8.172;2023-12-14T11:04:59;9.88;;;5.85;;
15814;SDS011;8008;50.024;8.172;2023-12-14T11:07:49;7.25;;;5.22;;
15814;SDS011;8008;50.024;8.172;2023-12-14T11:10:20;8.10;;;5.53;;
15814;SDS011;8008;50.024;8.172;2023-12-14T11:12:51;9.18;;;5.85;;
15814;SDS011;8008;50.024;8.172;2023-12-14T11:15:24;9.05;;;6.25;;
15814;SDS011;8008;50.024;8.172;2023-12-14T11:20:50;11.20;;;6.70;;
15814;SDS011;8008;50.024;8.172;2023-12-14T11:23:28;11.98;;;7.22;;
15814;SDS011;8008;50.024;8.172;2023-12-14T11:25:59;13.38;;;7.80;;
15814;SDS011;8008;50.024;8.172;2023-12-14T11:28:32;12.75;;;6.88;;
15814;SDS011;8008;50.024;8.172;2023-12-14T11:31:01;12.68;;;7.40;;
15814;SDS011;8008;50.024;8.172;2023-12-14T11:33:34;10.77;;;6.82;;
15814;SDS011;8008;50.024;8.172;2023-12-14T11:36:12;11.13;;;6.70;;
15814;SDS011;8008;50.024;8.172;2023-12-14T11:38:41;11.80;;;6.97;;
15814;SDS011;8008;50.024;8.172;2023-12-14T11:41:09;11.32;;;7.30;;
15814;SDS011;8008;50.024;8.172;2023-12-14T11:43:41;10.27;;;6.50;;
15814;SDS011;8008;50.024;8.172;2023-12-14T11:46:09;8.43;;;5.32;;
15814;SDS011;8008;50.024;8.172;2023-12-14T11:48:38;8.45;;;5.53;;
15814;SDS011;8008;50.024;8.172;2023-12-14T11:51:07;7.35;;;4.68;;
15814;SDS011;8008;50.024;8.172;2023-12-14T11:53:37;7.65;;;5.10;;
15814;SDS011;8008;50.024;8.172;2023-12-14T11:56:06;7.53;;;5.05;;
15814;SDS011;8008;50.024;8.172;2023-12-14T11:58:35;7.65;;;4.68;;
15814;SDS011;8008;50.024;8.172;2023-12-14T12:01:13;7.80;;;4.97;;
15814;SDS011;8008;50.024;8.172;2023-12-14T12:03:43;8.55;;;4.93;;
15814;SDS011;8008;50.024;8.172;2023-12-14T12:06:19;7.45;;;4.65;;
15814;SDS011;8008;50.024;8.172;2023-12-14T12:08:51;7.45;;;4.35;;
15814;SDS011;8008;50.024;8.172;2023-12-14T12:11:20;8.02;;;4.68;;
15814;SDS011;8008;50.024;8.172;2023-12-14T12:13:51;8.50;;;5.05;;
15814;SDS011;8008;50.024;8.172;2023-12-14T12:16:19;8.02;;;4.65;;
15814;SDS011;8008;50.024;8.172;2023-12-14T12:18:48;8.85;;;5.05;;
15814;SDS011;8008;50.024;8.172;2023-12-14T12:21:17;7.13;;;4.72;;
15814;SDS011;8008;50.024;8.172;2023-12-14T12:23:45;8.15;;;4.55;;
15814;SDS011;8008;50.024;8.172;2023-12-14T12:26:15;9.63;;;5.38;;
15814;SDS011;8008;50.024;8.172;2023-12-14T12:28:43;7.90;;;4.72;;
15814;SDS011;8008;50.024;8.172;2023-12-14T12:31:14;7.47;;;4.40;;
15814;SDS011;8008;50.024;8.172;2023-12-14T12:33:43;9.20;;;5.47;;
15814;SDS011;8008;50.024;8.172;2023-12-14T12:36:11;8.30;;;5.40;;
15814;SDS011;8008;50.024;8.172;2023-12-14T12:38:39;9.45;;;5.28;;
15814;SDS011;8008;50.024;8.172;2023-12-14T12:41:07;6.70;;;4.75;;
15814;SDS011;8008;50.024;8.172;2023-12-14T12:43:37;6.63;;;4.53;;
15814;SDS011;8008;50.024;8.172;2023-12-14T12:46:05;8.20;;;4.78;;
15814;SDS011;8008;50.024;8.172;2023-12-14T12:48:33;7.60;;;4.70;;
15814;SDS011;8008;50.024;8.172;2023-12-14T12:51:02;7.18;;;4.50;;
15814;SDS011;8008;50.024;8.172;2023-12-14T12:53:31;8.00;;;4.70;;
15814;SDS011;8008;50.024;8.172;2023-12-14T12:56:00;7.90;;;5.38;;
15814;SDS011;8008;50.024;8.172;2023-12-14T12:58:30;9.20;;;5.68;;
15814;SDS011;8008;50.024;8.172;2023-12-14T13:00:59;7.30;;;4.40;;
15814;SDS011;8008;50.024;8.172;2023-12-14T13:03:28;5.70;;;3.78;;
15814;SDS011;8008;50.024;8.172;2023-12-14T13:05:56;6.00;;;3.97;;
15814;SDS011;8008;50.024;8.172;2023-12-14T13:08:24;6.10;;;3.90;;
15814;SDS011;8008;50.024;8.172;2023-12-14T13:10:52;12.02;;;6.45;;
15814;SDS011;8008;50.024;8.172;2023-12-14T13:13:21;8.40;;;5.35;;
15814;SDS011;8008;50.024;8.172;2023-12-14T13:15:50;12.70;;;7.60;;
15814;SDS011;8008;50.024;8.172;2023-12-14T13:18:19;7.22;;;4.97;;
15814;SDS011;8008;50.024;8.172;2023-12-14T13:20:47;6.10;;;3.60;;
15814;SDS011;8008;50.024;8.172;2023-12-14T13:23:15;4.47;;;3.33;;
15814;SDS011;8008;50.024;8.172;2023-12-14T13:25:43;5.30;;;3.30;;
15814;SDS011;8008;50.024;8.172;2023-12-14T13:28:11;23.08;;;7.75;;
15814;SDS011;8008;50.024;8.172;2023-12-14T13:30:43;9.82;;;4.50;;
15814;SDS011;8008;50.024;8.172;2023-12-14T13:33:11;11.90;;;5.57;;
15814;SDS011;8008;50.024;8.172;2023-12-14T13:35:41;9.90;;;4.65;;
15814;SDS011;8008;50.024;8.172;2023-12-14T13:38:09;25.67;;;8.45;;
15814;SDS011;8008;50.024;8.172;2023-12-14T13:40:37;28.75;;;11.23;;
15814;SDS011;8008;50.024;8.172;2023-12-14T13:43:05;13.25;;;7.75;;
15814;SDS011;8008;50.024;8.172;2023-12-14T13:45:37;8.75;;;5.72;;
15814;SDS011;8008;50.024;8.172;2023-12-14T13:48:05;4.28;;;3.33;;
15814;SDS011;8008;50.024;8.172;2023-12-14T13:50:34;4.35;;;3.03;;
15814;SDS011;8008;50.024;8.172;2023-12-14T13:53:04;4.28;;;2.60;;
15814;SDS011;8008;50.024;8.172;2023-12-14T13:55:33;4.25;;;2.80;;
15814;SDS011;8008;50.024;8.172;2023-12-14T13:58:02;5.22;;;3.67;;
15814;SDS011;8008;50.024;8.172;2023-12-14T14:00:30;2.88;;;2.15;;
15814;SDS011;8008;50.024;8.172;2023-12-14T14:02:59;2.58;;;2.03;;
15814;SDS011;8008;50.024;8.172;2023-12-14T14:05:27;1.60;;;1.50;;
15814;SDS011;8008;50.024;8.172;2023-12-14T14:07:55;3.38;;;2.38;;
15814;SDS011;8008;50.024;8.172;2023-12-14T14:10:24;2.55;;;2.10;;
15814;SDS011;8008;50.024;8.172;2023-12-14T14:12:52;2.05;;;1.70;;
15814;SDS011;8008;50.024;8.172;2023-12-14T14:15:20;1.75;;;1.52;;
15814;SDS011;8008;50.024;8.172;2023-12-14T14:17:48;1.70;;;1.50;;
15814;SDS011;8008;50.024;8.172;2023-12-14T14:20:18;3.60;;;2.20;;
15814;SDS011;8008;50.024;8.172;2023-12-14T14:22:47;3.13;;;2.00;;
15814;SDS011;8008;50.024;8.172;2023-12-14T14:25:15;5.07;;;2.70;;
15814;SDS011;8008;50.024;8.172;2023-12-14T14:27:44;6.97;;;3.20;;
15814;SDS011;8008;50.024;8.172;2023-12-14T14:30:14;6.72;;;3.05;;
15814;SDS011;8008;50.024;8.172;2023-12-14T14:32:42;2.97;;;2.00;;
15814;SDS011;8008;50.024;8.172;2023-12-14T14:35:11;10.27;;;5.40;;
15814;SDS011;8008;50.024;8.172;2023-12-14T14:37:39;5.97;;;3.17;;
15814;SDS011;8008;50.024;8.172;2023-12-14T14:40:12;3.47;;;2.10;;
15814;SDS011;8008;50.024;8.172;2023-12-14T14:42:40;2.50;;;1.85;;
15814;SDS011;8008;50.024;8.172;2023-12-14T14:45:10;2.60;;;1.90;;
15814;SDS011;8008;50.024;8.172;2023-12-14T14:47:40;2.80;;;2.13;;
15814;SDS011;8008;50.024;8.172;2023-12-14T14:50:09;3.55;;;2.03;;
15814;SDS011;8008;50.024;8.172;2023-12-14T14:52:37;3.00;;;1.95;;
15814;SDS011;8008;50.024;8.172;2023-12-14T14:55:06;5.65;;;3.90;;
15814;SDS011;8008;50.024;8.172;2023-12-14T14:57:34;3.28;;;2.90;;
15814;SDS011;8008;50.024;8.172;2023-12-14T15:00:03;2.55;;;2.22;;
15814;SDS011;8008;50.024;8.172;2023-12-14T15:02:33;2.63;;;2.08;;
15814;SDS011;8008;50.024;8.172;2023-12-14T15:05:02;3.33;;;2.17;;
15814;SDS011;8008;50.024;8.172;2023-12-14T15:07:30;3.58;;;2.63;;
15814;SDS011;8008;50.024;8.172;2023-12-14T15:09:58;4.53;;;2.38;;
15814;SDS011;8008;50.024;8.172;2023-12-14T15:12:26;4.30;;;2.60;;
15814;SDS011;8008;50.024;8.172;2023-12-14T15:14:54;3.45;;;2.30;;
15814;SDS011;8008;50.024;8.172;2023-12-14T15:17:23;2.78;;;2.20;;
15814;SDS011;8008;50.024;8.172;2023-12-14T15:19:52;2.83;;;2.10;;
15814;SDS011;8008;50.024;8.172;2023-12-14T15:22:20;2.83;;;2.10;;
15814;SDS011;8008;50.024;8.172;2023-12-14T15:24:48;2.72;;;2.30;;
15814;SDS011;8008;50.024;8.172;2023-12-14T15:27:16;2.92;;;2.22;;
15814;SDS011;8008;50.024;8.172;2023-12-14T15:29:44;3.50;;;2.33;;
15814;SDS011;8008;50.024;8.172;2023-12-14T15:32:12;3.60;;;2.40;;
15814;SDS011;8008;50.024;8.172;2023-12-14T15:34:41;3.53;;;2.55;;
15814;SDS011;8008;50.024;8.172;2023-12-14T15:37:10;4.10;;;2.60;;
15814;SDS011;8008;50.024;8.172;2023-12-14T15:39:39;4.25;;;2.80;;
15814;SDS011;8008;50.024;8.172;2023-12-14T15:42:07;3.67;;;2.50;;
15814;SDS011;8008;50.024;8.172;2023-12-14T15:44:34;5.50;;;3.38;;
15814;SDS011;8008;50.024;8.172;2023-12-14T15:47:02;3.05;;;2.67;;
15814;SDS011;8008;50.024;8.172;2023-12-14T15:49:31;4.75;;;3.17;;
15814;SDS011;8008;50.024;8.172;2023-12-14T15:51:59;2.90;;;2.55;;
15814;SDS011;8008;50.024;8.172;2023-12-14T15:54:28;3.60;;;2.85;;
15814;SDS011;8008;50.024;8.172;2023-12-14T15:56:56;3.35;;;2.80;;
15814;SDS011;8008;50.024;8.172;2023-12-14T15:59:24;5.10;;;2.65;;
15814;SDS011;8008;50.024;8.172;2023-12-14T16:01:53;3.05;;;2.33;;
15814;SDS011;8008;50.024;8.172;2023-12-14T16:04:21;2.72;;;2.25;;
15814;SDS011;8008;50.024;8.172;2023-12-14T16:06:49;3.08;;;2.30;;
15814;SDS011;8008;50.024;8.172;2023-12-14T16:09:17;4.53;;;2.30;;
15814;SDS011;8008;50.024;8.172;2023-12-14T16:11:47;3.55;;;2.10;;
15814;SDS011;8008;50.024;8.172;2023-12-14T16:14:15;2.40;;;1.95;;
15814;SDS011;8008;50.024;8.172;2023-12-14T16:16:43;2.15;;;1.80;;
15814;SDS011;8008;50.024;8.172;2023-12-14T16:19:11;19.75;;;10.77;;
15814;SDS011;8008;50.024;8.172;2023-12-14T16:21:39;13.63;;;8.02;;
15814;SDS011;8008;50.024;8.172;2023-12-14T16:24:07;2.80;;;2.50;;
15814;SDS011;8008;50.024;8.172;2023-12-14T16:26:35;3.88;;;2.58;;
15814;SDS011;8008;50.024;8.172;2023-12-14T16:29:07;3.17;;;2.15;;
15814;SDS011;8008;50.024;8.172;2023-12-14T16:31:39;2.83;;;2.10;;
15814;SDS011;8008;50.024;8.172;2023-12-14T16:34:08;3.25;;;2.30;;
15814;SDS011;8008;50.024;8.172;2023-12-14T16:36:37;7.35;;;4.88;;
15814;SDS011;8008;50.024;8.172;2023-12-14T16:39:04;6.30;;;3.90;;
15814;SDS011;8008;50.024;8.172;2023-12-14T16:41:35;5.13;;;2.95;;
15814;SDS011;8008;50.024;8.172;2023-12-14T16:44:03;6.50;;;5.05;;
15814;SDS011;8008;50.024;8.172;2023-12-14T16:46:33;3.88;;;2.97;;
15814;SDS011;8008;50.024;8.172;2023-12-14T16:49:01;4.88;;;3.30;;
15814;SDS011;8008;50.024;8.172;2023-12-14T16:51:29;9.25;;;6.10;;
15814;SDS011;8008;50.024;8.172;2023-12-14T16:53:57;12.02;;;5.85;;
15814;SDS011;8008;50.024;8.172;2023-12-14T16:56:29;10.15;;;4.80;;
15814;SDS011;8008;50.024;8.172;2023-12-14T16:58:57;23.35;;;11.68;;
15814;SDS011;8008;50.024;8.172;2023-12-14T17:01:26;15.32;;;7.28;;
15814;SDS011;8008;50.024;8.172;2023-12-14T17:03:55;6.35;;;3.58;;
15814;SDS011;8008;50.024;8.172;2023-12-14T17:06:25;4.90;;;3.20;;
15814;SDS011;8008;50.024;8.172;2023-12-14T17:08:54;4.73;;;3.17;;
15814;SDS011;8008;50.024;8.172;2023-12-14T17:11:21;5.13;;;3.00;;
15814;SDS011;8008;50.024;8.172;2023-12-14T17:13:49;5.68;;;3.60;;
15814;SDS011;8008;50.024;8.172;2023-12-14T17:16:18;4.13;;;3.08;;
15814;SDS011;8008;50.024;8.172;2023-12-14T17:18:47;5.00;;;3.10;;
15814;SDS011;8008;50.024;8.172;2023-12-14T17:21:17;4.47;;;3.25;;
15814;SDS011;8008;50.024;8.172;2023-12-14T17:23:46;5.90;;;3.50;;
15814;SDS011;8008;50.024;8.172;2023-12-14T17:26:14;6.28;;;4.10;;
15814;SDS011;8008;50.024;8.172;2023-12-14T17:28:43;7.63;;;5.00;;
15814;SDS011;8008;50.024;8.172;2023-12-14T17:31:12;6.15;;;3.80;;
15814;SDS011;8008;50.024;8.172;2023-12-14T17:33:41;5.00;;;3.30;;
15814;SDS011;8008;50.024;8.172;2023-12-14T17:36:10;5.90;;;3.75;;
15814;SDS011;8008;50.024;8.172;2023-12-14T17:38:39;5.85;;;3.95;;
15814;SDS011;8008;50.024;8.172;2023-12-14T17:41:08;7.18;;;4.60;;
15814;SDS011;8008;50.024;8.172;2023-12-14T17:43:36;6.97;;;3.90;;
15814;SDS011;8008;50.024;8.172;2023-12-14T17:46:05;6.75;;;4.45;;
15814;SDS011;8008;50.024;8.172;2023-12-14T17:48:33;6.82;;;4.57;;
15814;SDS011;8008;50.024;8.172;2023-12-14T17:51:02;8.43;;;4.32;;
15814;SDS011;8008;50.024;8.172;2023-12-14T17:53:30;11.65;;;5.88;;
15814;SDS011;8008;50.024;8.172;2023-12-14T17:56:00;7.47;;;4.47;;
15814;SDS011;8008;50.024;8.172;2023-12-14T17:58:28;5.80;;;4.28;;
15814;SDS011;8008;50.024;8.172;2023-12-14T18:00:56;7.97;;;5.60;;
15814;SDS011;8008;50.024;8.172;2023-12-14T18:03:31;7.85;;;5.20;;
15814;SDS011;8008;50.024;8.172;2023-12-14T18:06:00;9.05;;;5.18;;
15814;SDS011;8008;50.024;8.172;2023-12-14T18:08:29;8.13;;;5.15;;
15814;SDS011;8008;50.024;8.172;2023-12-14T18:10:57;8.80;;;5.60;;
15814;SDS011;8008;50.024;8.172;2023-12-14T18:13:26;8.45;;;5.72;;
15814;SDS011;8008;50.024;8.172;2023-12-14T18:15:54;8.77;;;6.13;;
15814;SDS011;8008;50.024;8.172;2023-12-14T18:18:22;8.80;;;6.03;;
15814;SDS011;8008;50.024;8.172;2023-12-14T18:20:50;14.82;;;9.02;;
15814;SDS011;8008;50.024;8.172;2023-12-14T18:23:18;15.73;;;9.52;;
15814;SDS011;8008;50.024;8.172;2023-12-14T18:25:46;13.70;;;7.90;;
15814;SDS011;8008;50.024;8.172;2023-12-14T18:28:14;16.40;;;8.40;;
15814;SDS011;8008;50.024;8.172;2023-12-14T18:30:45;13.30;;;7.80;;
15814;SDS011;8008;50.024;8.172;2023-12-14T18:33:13;11.57;;;6.78;;
15814;SDS011;8008;50.024;8.172;2023-12-14T18:35:43;11.85;;;7.13;;
15814;SDS011;8008;50.024;8.172;2023-12-14T18:38:11;8.48;;;5.32;;
15814;SDS011;8008;50.024;8.172;2023-12-14T18:40:39;9.75;;;5.93;;
15814;SDS011;8008;50.024;8.172;2023-12-14T18:43:07;11.20;;;5.60;;
15814;SDS011;8008;50.024;8.172;2023-12-14T18:45:35;9.38;;;5.55;;
15814;SDS011;8008;50.024;8.172;2023-12-14T18:48:06;9.07;;;5.47;;
15814;SDS011;8008;50.024;8.172;2023-12-14T18:50:34;7.45;;;4.95;;
15814;SDS011;8008;50.024;8.172;2023-12-14T18:53:03;7.43;;;4.97;;
15814;SDS011;8008;50.024;8.172;2023-12-14T18:55:35;10.60;;;5.13;;
15814;SDS011;8008;50.024;8.172;2023-12-14T18:58:04;9.45;;;5.55;;
15814;SDS011;8008;50.024;8.172;2023-12-14T19:00:32;7.57;;;5.05;;
15814;SDS011;8008;50.024;8.172;2023-12-14T19:03:00;7.20;;;4.28;;
15814;SDS011;8008;50.024;8.172;2023-12-14T19:05:33;5.25;;;4.30;;
15814;SDS011;8008;50.024;8.172;2023-12-14T19:08:02;6.68;;;4.53;;